createdAt,value
2023-03-31T00:01:41.196Z,150925.75
2023-03-31T00:04:09.049Z,150904.28
2023-03-31T00:06:41.156Z,150895.41
2023-03-31T00:09:18.244Z,150885.25
2023-03-31T00:11:44.996Z,150882.69
2023-03-31T00:14:11.387Z,150904.28
2023-03-31T00:16:38.415Z,150892.88
2023-03-31T00:19:05.554Z,150861.22
2023-03-31T00:21:36.097Z,150903.00
2023-03-31T00:24:05.031Z,150885.25
2023-03-31T00:26:32.097Z,150919.44
2023-03-31T00:28:58.850Z,150896.66
2023-03-31T00:31:26.773Z,150882.69
2023-03-31T00:33:53.012Z,150889.09
2023-03-31T00:36:26.540Z,150853.66
2023-03-31T00:38:53.916Z,150876.41
2023-03-31T00:41:19.970Z,150889.09
2023-03-31T00:44:01.265Z,150890.34
2023-03-31T00:46:33.288Z,150891.63
2023-03-31T00:48:59.136Z,150882.69
2023-03-31T00:51:33.616Z,150891.63
2023-03-31T00:54:04.744Z,150861.22
2023-03-31T00:56:36.906Z,150862.47
2023-03-31T00:59:07.265Z,150884.00
2023-03-31T01:01:35.126Z,150901.75
2023-03-31T01:04:03.224Z,150867.56
2023-03-31T01:06:32.116Z,150877.66
2023-03-31T01:08:58.422Z,150834.72
2023-03-31T01:11:27.464Z,150820.78
2023-03-31T01:13:55.418Z,150827.09
2023-03-31T01:16:21.821Z,150843.53
2023-03-31T01:18:48.962Z,150830.94
2023-03-31T01:21:29.945Z,150825.84
2023-03-31T01:24:23.408Z,150833.44
2023-03-31T01:27:14.818Z,150829.66
2023-03-31T01:30:02.919Z,150852.41
2023-03-31T01:32:40.820Z,150851.13
2023-03-31T01:35:52.908Z,150835.97
2023-03-31T01:38:49.323Z,150814.50
2023-03-31T01:41:35.012Z,150844.78
2023-03-31T01:44:07.613Z,150849.88
2023-03-31T01:47:02.435Z,150861.22
2023-03-31T01:49:34.595Z,150880.19
2023-03-31T01:52:00.983Z,150832.19
2023-03-31T01:54:39.608Z,150825.84
2023-03-31T01:57:16.054Z,150819.53
2023-03-31T01:59:56.062Z,150815.75
2023-03-31T02:02:27.990Z,150805.63
2023-03-31T02:05:00.275Z,150780.38
2023-03-31T02:07:35.828Z,150795.53
2023-03-31T02:10:04.024Z,150808.16
2023-03-31T02:12:32.252Z,150792.97
2023-03-31T02:15:01.718Z,150809.41
2023-03-31T02:17:32.010Z,150810.66
2023-03-31T02:20:05.013Z,150808.16
2023-03-31T02:22:35.472Z,150770.25
2023-03-31T02:25:05.620Z,150776.59
2023-03-31T02:27:35.739Z,150779.13
2023-03-31T02:30:03.339Z,150794.28
2023-03-31T02:32:38.105Z,150770.25
2023-03-31T02:35:06.314Z,150777.84
2023-03-31T02:37:32.607Z,150782.91
2023-03-31T02:40:02.186Z,150792.97
2023-03-31T02:42:28.385Z,150780.38
2023-03-31T02:44:54.171Z,150815.75
2023-03-31T02:47:21.457Z,150785.41
2023-03-31T02:49:54.977Z,150785.41
2023-03-31T02:52:49.290Z,150791.72
2023-03-31T02:55:32.297Z,150810.66
2023-03-31T02:58:35.171Z,150822.06
2023-03-31T03:01:31.327Z,150805.63
2023-03-31T03:04:18.428Z,150824.56
2023-03-31T03:06:53.044Z,150798.06
2023-03-31T03:09:35.396Z,150808.16
2023-03-31T03:12:17.350Z,150796.81
2023-03-31T03:15:12.355Z,150815.75
2023-03-31T03:17:44.755Z,150817.00
2023-03-31T03:20:13.142Z,150818.28
2023-03-31T03:22:40.114Z,150792.97
2023-03-31T03:25:10.843Z,150805.63
2023-03-31T03:27:37.281Z,150823.31
2023-03-31T03:30:04.908Z,150817.00
2023-03-31T03:32:33.094Z,150801.84
2023-03-31T03:35:00.184Z,150809.41
2023-03-31T03:37:27.039Z,150823.31
2023-03-31T03:39:52.903Z,150777.84
2023-03-31T03:42:18.752Z,150745.00
2023-03-31T03:44:44.630Z,150751.28
2023-03-31T03:47:10.437Z,150745.00
2023-03-31T03:49:36.349Z,150768.97
2023-03-31T03:52:02.468Z,150746.25
2023-03-31T03:54:28.267Z,150745.00
2023-03-31T03:56:54.128Z,150757.66
2023-03-31T03:59:19.965Z,150763.94
2023-03-31T04:01:45.855Z,150758.91
2023-03-31T04:04:11.724Z,150733.59
2023-03-31T04:06:37.588Z,150741.22
2023-03-31T04:09:03.780Z,150745.00
2023-03-31T04:11:29.974Z,150776.59
2023-03-31T04:13:55.733Z,150772.75
2023-03-31T04:16:22.503Z,150768.97
2023-03-31T04:18:48.339Z,150738.66
2023-03-31T04:21:22.010Z,150742.47
2023-03-31T04:23:57.966Z,150729.81
2023-03-31T04:26:30.183Z,150724.78
2023-03-31T04:29:01.990Z,150709.63
2023-03-31T04:31:29.924Z,150707.09
2023-03-31T04:34:00.388Z,150699.50
2023-03-31T04:36:27.253Z,150724.78
2023-03-31T04:38:54.016Z,150710.88
2023-03-31T04:41:21.332Z,150727.31
2023-03-31T04:43:47.086Z,150733.59
2023-03-31T04:46:12.967Z,150751.28
2023-03-31T04:48:39.031Z,150739.97
2023-03-31T04:51:04.989Z,150736.13
2023-03-31T04:53:30.934Z,150702.03
2023-03-31T04:55:56.697Z,150700.75
2023-03-31T04:58:22.873Z,150705.84
2023-03-31T05:00:48.749Z,150699.50
2023-03-31T05:03:15.015Z,150695.72
2023-03-31T05:05:40.901Z,150698.25
2023-03-31T05:08:06.857Z,150686.91
2023-03-31T05:10:32.765Z,150717.19
2023-03-31T05:12:58.534Z,150708.38
2023-03-31T05:15:24.361Z,150705.84
2023-03-31T05:17:51.726Z,150698.25
2023-03-31T05:20:18.893Z,150680.56
2023-03-31T05:22:45.407Z,150690.69
2023-03-31T05:25:17.944Z,150648.97
2023-03-31T05:27:47.847Z,150661.59
2023-03-31T05:30:14.663Z,150638.91
2023-03-31T05:32:41.027Z,150647.72
2023-03-31T05:35:07.490Z,150666.66
2023-03-31T05:37:37.158Z,150635.13
2023-03-31T05:40:07.434Z,150642.66
2023-03-31T05:42:33.256Z,150628.75
2023-03-31T05:44:59.076Z,150631.28
2023-03-31T05:47:25.209Z,150638.91
2023-03-31T05:49:51.283Z,150622.47
2023-03-31T05:52:17.122Z,150631.28
2023-03-31T05:54:43.633Z,150630.03
2023-03-31T05:57:10.300Z,150631.28
2023-03-31T05:59:36.234Z,150613.59
2023-03-31T06:02:02.721Z,150613.59
2023-03-31T06:04:28.804Z,150625.00
2023-03-31T06:06:55.279Z,150647.72
2023-03-31T06:09:21.466Z,150626.25
2023-03-31T06:11:49.410Z,150642.66
2023-03-31T06:14:16.285Z,150638.91
2023-03-31T06:16:42.046Z,150646.44
2023-03-31T06:19:07.968Z,150635.13
2023-03-31T06:21:34.396Z,150630.03
2023-03-31T06:24:00.454Z,150627.50
2023-03-31T06:26:26.712Z,150628.75
2023-03-31T06:28:53.161Z,150626.25
2023-03-31T06:31:21.240Z,150622.47
2023-03-31T06:33:47.598Z,150612.34
2023-03-31T06:36:16.013Z,150601.00
2023-03-31T06:38:42.108Z,150619.94
2023-03-31T06:41:10.995Z,150654.06
2023-03-31T06:43:36.873Z,150657.84
2023-03-31T06:46:03.278Z,150632.59
2023-03-31T06:48:29.154Z,150606.06
2023-03-31T06:50:58.466Z,150595.97
2023-03-31T06:53:24.423Z,150597.22
2023-03-31T06:55:50.422Z,150609.81
2023-03-31T06:58:16.173Z,150619.94
2023-03-31T07:00:41.944Z,150612.34
2023-03-31T07:03:10.632Z,150627.50
2023-03-31T07:05:36.552Z,150606.06
2023-03-31T07:08:02.826Z,150589.63
2023-03-31T07:10:30.795Z,150583.34
2023-03-31T07:12:56.792Z,150599.75
2023-03-31T07:15:23.758Z,150594.66
2023-03-31T07:17:53.199Z,150588.38
2023-03-31T07:20:19.728Z,150611.09
2023-03-31T07:22:47.723Z,150602.28
2023-03-31T07:25:16.160Z,150602.28
2023-03-31T07:27:43.093Z,150599.75
2023-03-31T07:30:13.842Z,150602.28
2023-03-31T07:32:40.546Z,150601.00
2023-03-31T07:35:08.381Z,150602.28
2023-03-31T07:37:43.086Z,150651.53
2023-03-31T07:40:11.399Z,150621.22
2023-03-31T07:42:37.379Z,150613.59
2023-03-31T07:45:05.381Z,150590.88
2023-03-31T07:47:32.172Z,150599.75
2023-03-31T07:49:58.393Z,150577.00
2023-03-31T07:52:24.303Z,150587.13
2023-03-31T07:54:50.469Z,150608.56
2023-03-31T07:57:18.980Z,150646.44
2023-03-31T07:59:47.940Z,150630.03
2023-03-31T08:02:16.276Z,150636.38
2023-03-31T08:04:43.573Z,150619.94
2023-03-31T08:07:12.424Z,150683.06
2023-03-31T08:09:39.036Z,150662.88
2023-03-31T08:12:05.667Z,150657.84
2023-03-31T08:14:40.799Z,150666.66
2023-03-31T08:17:08.516Z,150715.94
2023-03-31T08:19:34.627Z,150766.47
2023-03-31T08:22:00.414Z,150825.84
2023-03-31T08:24:26.141Z,150863.75
2023-03-31T08:26:52.200Z,150848.63
2023-03-31T08:29:18.012Z,150827.09
2023-03-31T08:31:43.864Z,150825.84
2023-03-31T08:34:09.702Z,150870.09
2023-03-31T08:36:35.635Z,150916.88
2023-03-31T08:39:01.460Z,150918.13
2023-03-31T08:41:52.984Z,150940.91
2023-03-31T08:44:51.792Z,151011.72
2023-03-31T08:47:22.127Z,151040.78
2023-03-31T08:49:58.386Z,151105.28
2023-03-31T08:52:30.154Z,151140.69
2023-03-31T08:54:59.021Z,151191.31
2023-03-31T08:57:30.898Z,151169.75
2023-03-31T08:59:58.054Z,151157.16
2023-03-31T09:02:29.943Z,151104.03
2023-03-31T09:05:32.067Z,151123.00
2023-03-31T09:08:30.810Z,151049.66
2023-03-31T09:11:22.300Z,151071.13
2023-03-31T09:14:03.329Z,151035.72
2023-03-31T09:16:41.863Z,151052.19
2023-03-31T09:19:17.718Z,151081.28
2023-03-31T09:21:48.840Z,151082.53
2023-03-31T09:24:14.810Z,151091.38
2023-03-31T09:26:45.484Z,151125.50
2023-03-31T09:29:34.491Z,151186.22
2023-03-31T09:32:15.655Z,151144.47
2023-03-31T09:34:42.416Z,151134.34
2023-03-31T09:37:11.297Z,151148.28
2023-03-31T09:39:38.246Z,151140.69
2023-03-31T09:42:04.581Z,151105.28
2023-03-31T09:44:37.005Z,151134.34
2023-03-31T09:47:08.286Z,151231.78
2023-03-31T09:49:37.167Z,151249.50
2023-03-31T09:52:23.317Z,151298.84
2023-03-31T09:54:52.359Z,151316.56
2023-03-31T09:57:33.270Z,151316.56
2023-03-31T10:00:15.671Z,151363.41
2023-03-31T10:02:47.017Z,151467.22
2023-03-31T10:05:32.736Z,151495.06
2023-03-31T10:08:11.293Z,151460.91
2023-03-31T10:10:37.966Z,151409.00
2023-03-31T10:13:10.042Z,151409.00
2023-03-31T10:15:42.224Z,151373.56
2023-03-31T10:18:16.625Z,151396.34
2023-03-31T10:20:48.315Z,151387.50
2023-03-31T10:23:17.869Z,151460.91
2023-03-31T10:25:46.453Z,151465.97
2023-03-31T10:28:17.196Z,151452.03
2023-03-31T10:30:55.063Z,151435.56
2023-03-31T10:33:27.401Z,151379.88
2023-03-31T10:35:58.826Z,151353.28
2023-03-31T10:38:35.856Z,151364.69
2023-03-31T10:41:02.316Z,151297.59
2023-03-31T10:43:46.636Z,151228.00
2023-03-31T10:46:12.456Z,151271.00
2023-03-31T10:48:41.444Z,151346.91
2023-03-31T10:51:18.847Z,151420.38
2023-03-31T10:53:47.204Z,151443.19
2023-03-31T10:56:35.061Z,151525.47
2023-03-31T10:59:13.339Z,151572.34
2023-03-31T11:02:00.637Z,151577.38
2023-03-31T11:04:29.745Z,151587.53
2023-03-31T11:07:02.180Z,151653.38
2023-03-31T11:09:36.983Z,151720.53
2023-03-31T11:12:20.144Z,151756.03
2023-03-31T11:15:02.713Z,151682.53
2023-03-31T11:17:40.708Z,151752.25
2023-03-31T11:20:31.100Z,151813.06
2023-03-31T11:23:36.114Z,151839.72
2023-03-31T11:26:10.160Z,151781.38
2023-03-31T11:28:48.530Z,151749.72
2023-03-31T11:31:43.114Z,151764.91
2023-03-31T11:34:32.493Z,151835.88
2023-03-31T11:37:22.346Z,151934.75
2023-03-31T11:40:19.055Z,151802.97
2023-03-31T11:43:16.463Z,151648.31
2023-03-31T11:45:45.640Z,151544.44
2023-03-31T11:48:29.612Z,151533.06
2023-03-31T11:50:59.131Z,151409.00
2023-03-31T11:53:31.817Z,151381.13
2023-03-31T11:56:01.535Z,151436.81
2023-03-31T11:58:43.641Z,151419.09
2023-03-31T12:01:22.651Z,151363.41
2023-03-31T12:04:23.927Z,150968.72
2023-03-31T12:06:53.789Z,150934.56
2023-03-31T12:09:50.789Z,150932.06
2023-03-31T12:12:23.733Z,150937.09
2023-03-31T12:14:57.241Z,150948.50
2023-03-31T12:17:27.053Z,151023.06
2023-03-31T12:19:57.033Z,151037.00
2023-03-31T12:22:38.216Z,151112.84
2023-03-31T12:25:04.905Z,151263.41
2023-03-31T12:27:39.708Z,151343.13
2023-03-31T12:30:08.792Z,151374.81
2023-03-31T12:32:43.692Z,151448.25
2023-03-31T12:35:21.713Z,151433.03
2023-03-31T12:38:32.074Z,151325.41
2023-03-31T12:41:20.460Z,151365.94
2023-03-31T12:44:04.991Z,151358.38
2023-03-31T12:46:48.938Z,151431.78
2023-03-31T12:49:49.565Z,151479.91
2023-03-31T12:52:35.830Z,151377.34
2023-03-31T12:55:32.372Z,151346.91
2023-03-31T12:58:35.729Z,151335.53
2023-03-31T13:01:23.945Z,151268.47
2023-03-31T13:03:54.356Z,151374.81
2023-03-31T13:06:29.009Z,151414.06
2023-03-31T13:09:07.854Z,151396.34
2023-03-31T13:11:36.501Z,151405.22
2023-03-31T13:14:17.431Z,151379.88
2023-03-31T13:16:43.540Z,151384.91
2023-03-31T13:19:32.727Z,151315.31
2023-03-31T13:22:01.011Z,151257.06
2023-03-31T13:24:28.714Z,151230.50
2023-03-31T13:27:01.736Z,151228.00
2023-03-31T13:29:43.891Z,151231.78
2023-03-31T13:32:26.042Z,151230.50
2023-03-31T13:35:01.906Z,151260.84
2023-03-31T13:37:44.414Z,151287.44
2023-03-31T13:40:30.108Z,151387.50
2023-03-31T13:43:40.956Z,151438.09
2023-03-31T13:46:15.594Z,151564.69
2023-03-31T13:49:00.104Z,151664.78
2023-03-31T13:51:35.610Z,151625.53
2023-03-31T13:54:20.722Z,151501.41
2023-03-31T13:57:05.466Z,151429.25
2023-03-31T13:59:37.541Z,151348.16
2023-03-31T14:02:22.005Z,151322.88
2023-03-31T14:05:18.854Z,151288.72
2023-03-31T14:07:49.330Z,151282.41
2023-03-31T14:10:23.794Z,151271.00
2023-03-31T14:12:51.973Z,151258.31
2023-03-31T14:15:20.584Z,151289.97
2023-03-31T14:17:46.925Z,151287.44
2023-03-31T14:20:21.611Z,151221.63
2023-03-31T14:23:10.185Z,151248.22
2023-03-31T14:26:15.772Z,151277.31
2023-03-31T14:29:00.285Z,151268.47
2023-03-31T14:31:57.822Z,151258.31
2023-03-31T14:34:53.173Z,151240.59
2023-03-31T14:37:23.884Z,151241.88
2023-03-31T14:39:55.809Z,151224.16
2023-03-31T14:42:25.358Z,151195.09
2023-03-31T14:45:01.427Z,151253.28
2023-03-31T14:47:28.682Z,151255.81
2023-03-31T14:50:15.760Z,151276.03
2023-03-31T14:52:47.598Z,151284.91
2023-03-31T14:55:17.534Z,151258.31
2023-03-31T14:57:46.689Z,151308.94
2023-03-31T15:00:19.529Z,151322.88
2023-03-31T15:02:46.340Z,151335.53
2023-03-31T15:05:24.817Z,151363.41
2023-03-31T15:07:50.676Z,151448.25
2023-03-31T15:10:20.707Z,151516.63
2023-03-31T15:12:50.395Z,151514.09
2023-03-31T15:15:19.043Z,151477.38
2023-03-31T15:17:46.585Z,151476.06
2023-03-31T15:20:31.404Z,151425.47
2023-03-31T15:22:58.891Z,151335.53
2023-03-31T15:25:33.640Z,151311.47
2023-03-31T15:28:12.136Z,151254.53
2023-03-31T15:30:38.574Z,151201.41
2023-03-31T15:33:18.489Z,151158.41
2023-03-31T15:35:46.181Z,151173.59
2023-03-31T15:38:17.868Z,151249.50
2023-03-31T15:40:45.032Z,151216.59
2023-03-31T15:43:20.299Z,151243.19
2023-03-31T15:45:53.060Z,151238.09
2023-03-31T15:48:37.919Z,151225.47
2023-03-31T15:51:26.885Z,151217.84
2023-03-31T15:53:53.794Z,151230.50
2023-03-31T15:56:43.082Z,151172.34
2023-03-31T15:59:25.088Z,151145.75
2023-03-31T16:01:53.117Z,151167.25
2023-03-31T16:04:19.561Z,151160.94
2023-03-31T16:06:57.863Z,151133.09
2023-03-31T16:09:47.272Z,151100.25
2023-03-31T16:12:38.717Z,151093.88
2023-03-31T16:15:13.290Z,151077.44
2023-03-31T16:17:46.848Z,151077.44
2023-03-31T16:20:31.077Z,151073.66
2023-03-31T16:22:58.863Z,151081.28
2023-03-31T16:25:29.087Z,151047.13
2023-03-31T16:27:58.412Z,151030.69
2023-03-31T16:30:41.617Z,151029.44
2023-03-31T16:33:10.591Z,150985.16
2023-03-31T16:35:41.743Z,151009.16
2023-03-31T16:38:09.689Z,150988.94
2023-03-31T16:40:44.020Z,150988.94
2023-03-31T16:43:09.742Z,150972.50
2023-03-31T16:45:36.149Z,150988.94
2023-03-31T16:48:15.105Z,151037.00
2023-03-31T16:50:44.021Z,151010.47
2023-03-31T16:53:12.539Z,151021.81
2023-03-31T16:55:38.392Z,151031.94
2023-03-31T16:58:04.263Z,151010.47
2023-03-31T17:00:31.584Z,151006.63
2023-03-31T17:02:58.426Z,151009.16
2023-03-31T17:05:25.010Z,151010.47
2023-03-31T17:07:51.469Z,150997.81
2023-03-31T17:10:17.594Z,151020.56
2023-03-31T17:12:43.462Z,151034.47
2023-03-31T17:15:10.030Z,151007.91
2023-03-31T17:17:36.148Z,150957.38
2023-03-31T17:20:03.748Z,150949.75
2023-03-31T17:22:29.907Z,150958.63
2023-03-31T17:24:57.724Z,150949.75
2023-03-31T17:27:25.235Z,150948.50
2023-03-31T17:29:51.257Z,150913.09
2023-03-31T17:32:18.459Z,150921.97
2023-03-31T17:34:47.190Z,150905.53
2023-03-31T17:37:16.159Z,150918.13
2023-03-31T17:39:42.822Z,150885.25
2023-03-31T17:42:10.116Z,150887.78
2023-03-31T17:44:36.106Z,150873.88
2023-03-31T17:47:02.065Z,150895.41
2023-03-31T17:49:28.089Z,150889.09
2023-03-31T17:51:54.077Z,150865.00
2023-03-31T17:54:21.336Z,150881.44
2023-03-31T17:56:50.369Z,150877.66
2023-03-31T17:59:17.928Z,150857.44
2023-03-31T18:01:44.693Z,150825.84
2023-03-31T18:04:10.724Z,150851.13
2023-03-31T18:06:36.629Z,150876.41
2023-03-31T18:09:04.898Z,150890.34
2023-03-31T18:11:31.196Z,150842.28
2023-03-31T18:13:59.428Z,150854.91
2023-03-31T18:16:25.530Z,150858.69
2023-03-31T18:18:51.423Z,150859.97
2023-03-31T18:21:17.202Z,150852.41
2023-03-31T18:23:43.006Z,150852.41
2023-03-31T18:26:11.034Z,150871.34
2023-03-31T18:28:39.942Z,150886.53
2023-03-31T18:31:07.936Z,150870.09
2023-03-31T18:33:34.248Z,150882.69
2023-03-31T18:36:01.165Z,150867.56
2023-03-31T18:38:27.450Z,150884.00
2023-03-31T18:40:53.975Z,150914.34
2023-03-31T18:43:23.957Z,150900.44
2023-03-31T18:45:55.702Z,150894.13
2023-03-31T18:48:22.498Z,150878.91
2023-03-31T18:50:50.988Z,150858.69
2023-03-31T18:53:18.648Z,150853.66
2023-03-31T18:55:52.455Z,150839.75
2023-03-31T18:58:18.549Z,150819.53
2023-03-31T19:00:44.757Z,150828.34
2023-03-31T19:03:11.391Z,150818.28
2023-03-31T19:05:38.026Z,150808.16
2023-03-31T19:08:04.516Z,150803.09
2023-03-31T19:10:30.827Z,150841.00
2023-03-31T19:12:56.777Z,150833.44
2023-03-31T19:15:22.759Z,150829.66
2023-03-31T19:17:48.640Z,150824.56
2023-03-31T19:20:17.326Z,150818.28
2023-03-31T19:22:44.732Z,150784.16
2023-03-31T19:25:11.977Z,150775.28
2023-03-31T19:27:38.907Z,150775.28
2023-03-31T19:30:06.161Z,150734.88
2023-03-31T19:32:32.814Z,150747.50
2023-03-31T19:34:58.666Z,150765.19
2023-03-31T19:37:24.983Z,150794.28
2023-03-31T19:39:51.635Z,150780.38
2023-03-31T19:42:17.459Z,150785.41
2023-03-31T19:44:44.688Z,150733.59
2023-03-31T19:47:11.852Z,150713.41
2023-03-31T19:49:37.830Z,150739.97
2023-03-31T19:52:05.052Z,150715.94
2023-03-31T19:54:31.252Z,150708.38
2023-03-31T19:56:57.219Z,150724.78
2023-03-31T19:59:23.092Z,150729.81
2023-03-31T20:01:49.158Z,150729.81
2023-03-31T20:04:18.308Z,150727.31
2023-03-31T20:06:44.292Z,150712.16
2023-03-31T20:09:10.195Z,150694.47
2023-03-31T20:11:36.338Z,150669.22
2023-03-31T20:14:03.248Z,150690.69
2023-03-31T20:16:30.902Z,150693.19
2023-03-31T20:19:06.163Z,150704.59
2023-03-31T20:21:35.148Z,150686.91
2023-03-31T20:24:02.166Z,150688.16
2023-03-31T20:26:29.470Z,150690.69
2023-03-31T20:28:57.275Z,150680.56
2023-03-31T20:31:28.156Z,150693.19
2023-03-31T20:33:55.094Z,150660.34
2023-03-31T20:36:23.533Z,150661.59
2023-03-31T20:38:51.533Z,150654.06
2023-03-31T20:41:27.465Z,150613.59
2023-03-31T20:43:54.524Z,150626.25
2023-03-31T20:46:21.603Z,150611.09
2023-03-31T20:48:50.618Z,150628.75
2023-03-31T20:51:21.977Z,150582.06
2023-03-31T20:53:52.106Z,150622.47
2023-03-31T20:56:26.943Z,150611.09
2023-03-31T20:58:54.182Z,150606.06
2023-03-31T21:01:21.256Z,150619.94
2023-03-31T21:03:48.216Z,150609.81
2023-03-31T21:06:15.859Z,150623.72
2023-03-31T21:08:44.783Z,150652.78
2023-03-31T21:11:12.203Z,150655.31
2023-03-31T21:13:38.367Z,150657.84
2023-03-31T21:16:06.097Z,150631.28
2023-03-31T21:18:34.093Z,150638.91
2023-03-31T21:21:03.663Z,150602.28
2023-03-31T21:23:30.299Z,150578.28
2023-03-31T21:25:58.959Z,150592.16
2023-03-31T21:28:27.393Z,150613.59
2023-03-31T21:31:12.975Z,150609.81
2023-03-31T21:33:41.250Z,150602.28
2023-03-31T21:36:10.408Z,150594.66
2023-03-31T21:38:36.520Z,150583.34
2023-03-31T21:41:10.598Z,150553.00
2023-03-31T21:43:36.676Z,150544.19
2023-03-31T21:46:03.253Z,150544.19
2023-03-31T21:48:29.917Z,150535.34
2023-03-31T21:50:59.711Z,150542.94
2023-03-31T21:53:27.953Z,150569.44
2023-03-31T21:55:55.646Z,150541.63
2023-03-31T21:58:27.712Z,150546.72
2023-03-31T22:00:59.035Z,150540.38
2023-03-31T22:03:28.226Z,150561.88
2023-03-31T22:05:55.920Z,150549.25
2023-03-31T22:08:22.178Z,150531.56
2023-03-31T22:10:49.664Z,150521.44
2023-03-31T22:13:15.712Z,150530.31
2023-03-31T22:15:41.607Z,150540.38
2023-03-31T22:18:07.564Z,150561.88
2023-03-31T22:20:33.657Z,150575.72
2023-03-31T22:22:59.488Z,150568.19
2023-03-31T22:25:26.081Z,150571.94
2023-03-31T22:27:51.958Z,150561.88
2023-03-31T22:30:19.927Z,150544.19
2023-03-31T22:32:45.862Z,150545.47
2023-03-31T22:35:11.788Z,150553.00
2023-03-31T22:37:37.668Z,150525.25
2023-03-31T22:40:04.932Z,150525.25
2023-03-31T22:42:31.998Z,150550.50
2023-03-31T22:44:57.881Z,150537.84
2023-03-31T22:47:23.743Z,150553.00
2023-03-31T22:49:49.550Z,150553.00
2023-03-31T22:52:15.462Z,150527.78
2023-03-31T22:54:41.356Z,150517.66
2023-03-31T22:57:07.910Z,150523.97
2023-03-31T22:59:34.410Z,150539.13
2023-03-31T23:02:00.584Z,150520.19
2023-03-31T23:04:26.876Z,150518.91
2023-03-31T23:06:52.864Z,150549.25
2023-03-31T23:09:18.695Z,150516.41
2023-03-31T23:11:44.730Z,150526.53
2023-03-31T23:14:11.237Z,150542.94
2023-03-31T23:16:37.644Z,150521.44
2023-03-31T23:19:03.845Z,150508.84
2023-03-31T23:21:30.103Z,150517.66
2023-03-31T23:23:58.863Z,150515.16
2023-03-31T23:26:27.421Z,150530.31
2023-03-31T23:28:53.387Z,150554.28
2023-03-31T23:31:22.412Z,150529.03
2023-03-31T23:33:48.913Z,150540.38
2023-03-31T23:36:20.244Z,150556.78
2023-03-31T23:38:48.192Z,150529.03
2023-03-31T23:41:15.308Z,150527.78
2023-03-31T23:43:41.507Z,150522.69
2023-03-31T23:46:08.584Z,150532.81
2023-03-31T23:48:35.892Z,150493.69
2023-03-31T23:51:02.174Z,150494.94
2023-03-31T23:53:28.637Z,150487.34
2023-03-31T23:55:59.343Z,150488.66
2023-03-31T23:58:25.945Z,150496.22
